sensor_id;sensor_type;location;lat;lon;timestamp;P1;durP1;ratioP1;P2;durP2;ratioP2
10479;SDS011;12789;42.610;23.040;2022-10-16T00:01:06;23.40;;;12.83;;
10479;SDS011;12789;42.610;23.040;2022-10-16T00:03:34;22.07;;;12.40;;
10479;SDS011;12789;42.610;23.040;2022-10-16T00:06:01;18.00;;;11.80;;
10479;SDS011;12789;42.610;23.040;2022-10-16T00:08:29;21.27;;;12.40;;
10479;SDS011;12789;42.610;23.040;2022-10-16T00:11:01;22.07;;;13.03;;
10479;SDS011;12789;42.610;23.040;2022-10-16T00:13:30;20.40;;;12.70;;
10479;SDS011;12789;42.610;23.040;2022-10-16T00:15:58;23.27;;;12.40;;
10479;SDS011;12789;42.610;23.040;2022-10-16T00:18:25;20.97;;;12.47;;
10479;SDS011;12789;42.610;23.040;2022-10-16T00:20:54;19.87;;;12.83;;
10479;SDS011;12789;42.610;23.040;2022-10-16T00:23:21;21.27;;;12.17;;
10479;SDS011;12789;42.610;23.040;2022-10-16T00:25:55;21.70;;;12.53;;
10479;SDS011;12789;42.610;23.040;2022-10-16T00:28:24;22.30;;;13.57;;
10479;SDS011;12789;42.610;23.040;2022-10-16T00:30:51;23.67;;;13.97;;
10479;SDS011;12789;42.610;23.040;2022-10-16T00:33:18;26.23;;;15.10;;
10479;SDS011;12789;42.610;23.040;2022-10-16T00:35:46;29.07;;;15.40;;
10479;SDS011;12789;42.610;23.040;2022-10-16T00:38:13;24.47;;;15.90;;
10479;SDS011;12789;42.610;23.040;2022-10-16T00:40:40;26.10;;;15.30;;
10479;SDS011;12789;42.610;23.040;2022-10-16T00:43:10;28.60;;;16.13;;
10479;SDS011;12789;42.610;23.040;2022-10-16T00:45:41;29.07;;;15.97;;
10479;SDS011;12789;42.610;23.040;2022-10-16T00:48:10;29.63;;;15.00;;
10479;SDS011;12789;42.610;23.040;2022-10-16T00:50:39;23.93;;;15.60;;
10479;SDS011;12789;42.610;23.040;2022-10-16T00:53:09;27.37;;;15.43;;
10479;SDS011;12789;42.610;23.040;2022-10-16T00:55:37;22.63;;;14.43;;
10479;SDS011;12789;42.610;23.040;2022-10-16T00:58:04;29.07;;;13.77;;
10479;SDS011;12789;42.610;23.040;2022-10-16T01:00:31;20.10;;;12.43;;
10479;SDS011;12789;42.610;23.040;2022-10-16T01:03:00;21.77;;;11.77;;
10479;SDS011;12789;42.610;23.040;2022-10-16T01:05:30;20.00;;;11.73;;
10479;SDS011;12789;42.610;23.040;2022-10-16T01:08:04;19.70;;;12.50;;
10479;SDS011;12789;42.610;23.040;2022-10-16T01:10:39;21.43;;;12.27;;
10479;SDS011;12789;42.610;23.040;2022-10-16T01:13:12;19.17;;;12.27;;
10479;SDS011;12789;42.610;23.040;2022-10-16T01:15:45;21.40;;;12.53;;
10479;SDS011;12789;42.610;23.040;2022-10-16T01:18:21;24.50;;;12.83;;
10479;SDS011;12789;42.610;23.040;2022-10-16T01:20:54;21.63;;;12.93;;
10479;SDS011;12789;42.610;23.040;2022-10-16T01:23:27;20.47;;;12.27;;
10479;SDS011;12789;42.610;23.040;2022-10-16T01:26:20;23.67;;;12.73;;
10479;SDS011;12789;42.610;23.040;2022-10-16T01:29:05;21.17;;;13.43;;
10479;SDS011;12789;42.610;23.040;2022-10-16T01:31:39;24.40;;;14.53;;
10479;SDS011;12789;42.610;23.040;2022-10-16T01:34:08;25.53;;;14.27;;
10479;SDS011;12789;42.610;23.040;2022-10-16T01:36:41;32.63;;;15.20;;
10479;SDS011;12789;42.610;23.040;2022-10-16T01:39:11;31.07;;;15.20;;
10479;SDS011;12789;42.610;23.040;2022-10-16T01:41:41;25.70;;;14.63;;
10479;SDS011;12789;42.610;23.040;2022-10-16T01:44:13;24.17;;;14.03;;
10479;SDS011;12789;42.610;23.040;2022-10-16T01:46:46;21.77;;;13.23;;
10479;SDS011;12789;42.610;23.040;2022-10-16T01:49:15;26.87;;;13.50;;
10479;SDS011;12789;42.610;23.040;2022-10-16T01:51:45;22.97;;;13.13;;
10479;SDS011;12789;42.610;23.040;2022-10-16T01:54:15;18.63;;;11.33;;
10479;SDS011;12789;42.610;23.040;2022-10-16T01:56:44;20.23;;;12.03;;
10479;SDS011;12789;42.610;23.040;2022-10-16T01:59:14;20.90;;;12.47;;
10479;SDS011;12789;42.610;23.040;2022-10-16T02:01:45;20.13;;;12.37;;
10479;SDS011;12789;42.610;23.040;2022-10-16T02:04:17;22.30;;;12.80;;
10479;SDS011;12789;42.610;23.040;2022-10-16T02:06:48;23.47;;;13.10;;
10479;SDS011;12789;42.610;23.040;2022-10-16T02:09:14;19.77;;;11.97;;
10479;SDS011;12789;42.610;23.040;2022-10-16T02:11:42;20.17;;;12.73;;
10479;SDS011;12789;42.610;23.040;2022-10-16T02:14:09;27.00;;;13.97;;
10479;SDS011;12789;42.610;23.040;2022-10-16T02:16:38;23.27;;;13.17;;
10479;SDS011;12789;42.610;23.040;2022-10-16T02:19:06;23.53;;;12.97;;
10479;SDS011;12789;42.610;23.040;2022-10-16T02:21:35;27.53;;;13.50;;
10479;SDS011;12789;42.610;23.040;2022-10-16T02:24:10;21.40;;;13.30;;
10479;SDS011;12789;42.610;23.040;2022-10-16T02:26:46;22.23;;;13.27;;
10479;SDS011;12789;42.610;23.040;2022-10-16T02:29:20;22.13;;;12.57;;
10479;SDS011;12789;42.610;23.040;2022-10-16T02:31:53;17.90;;;12.47;;
10479;SDS011;12789;42.610;23.040;2022-10-16T02:34:24;18.00;;;12.07;;
10479;SDS011;12789;42.610;23.040;2022-10-16T02:36:55;17.90;;;11.60;;
10479;SDS011;12789;42.610;23.040;2022-10-16T02:39:23;20.10;;;12.17;;
10479;SDS011;12789;42.610;23.040;2022-10-16T02:41:51;15.83;;;10.97;;
10479;SDS011;12789;42.610;23.040;2022-10-16T02:44:18;18.83;;;11.70;;
10479;SDS011;12789;42.610;23.040;2022-10-16T02:46:45;21.93;;;12.10;;
10479;SDS011;12789;42.610;23.040;2022-10-16T02:49:13;24.23;;;13.07;;
10479;SDS011;12789;42.610;23.040;2022-10-16T02:51:40;20.17;;;12.33;;
10479;SDS011;12789;42.610;23.040;2022-10-16T02:54:07;21.80;;;13.57;;
10479;SDS011;12789;42.610;23.040;2022-10-16T02:56:34;23.90;;;12.93;;
10479;SDS011;12789;42.610;23.040;2022-10-16T02:59:01;19.23;;;12.83;;
10479;SDS011;12789;42.610;23.040;2022-10-16T03:01:28;22.13;;;12.67;;
10479;SDS011;12789;42.610;23.040;2022-10-16T03:03:55;23.50;;;11.87;;
10479;SDS011;12789;42.610;23.040;2022-10-16T03:06:23;18.20;;;10.77;;
10479;SDS011;12789;42.610;23.040;2022-10-16T03:08:50;17.13;;;10.43;;
10479;SDS011;12789;42.610;23.040;2022-10-16T03:11:17;16.10;;;10.60;;
10479;SDS011;12789;42.610;23.040;2022-10-16T03:13:44;20.17;;;11.23;;
10479;SDS011;12789;42.610;23.040;2022-10-16T03:16:10;17.53;;;12.07;;
10479;SDS011;12789;42.610;23.040;2022-10-16T03:18:38;18.73;;;11.50;;
10479;SDS011;12789;42.610;23.040;2022-10-16T03:21:05;23.97;;;12.10;;
10479;SDS011;12789;42.610;23.040;2022-10-16T03:23:33;18.10;;;11.53;;
10479;SDS011;12789;42.610;23.040;2022-10-16T03:26:00;18.57;;;11.23;;
10479;SDS011;12789;42.610;23.040;2022-10-16T03:28:27;18.20;;;11.83;;
10479;SDS011;12789;42.610;23.040;2022-10-16T03:30:53;19.27;;;12.70;;
10479;SDS011;12789;42.610;23.040;2022-10-16T03:33:21;21.53;;;12.70;;
10479;SDS011;12789;42.610;23.040;2022-10-16T03:35:51;22.43;;;12.00;;
10479;SDS011;12789;42.610;23.040;2022-10-16T03:38:19;24.03;;;12.83;;
10479;SDS011;12789;42.610;23.040;2022-10-16T03:40:49;21.53;;;11.37;;
10479;SDS011;12789;42.610;23.040;2022-10-16T03:43:16;23.77;;;12.27;;
10479;SDS011;12789;42.610;23.040;2022-10-16T03:45:42;25.07;;;13.90;;
10479;SDS011;12789;42.610;23.040;2022-10-16T03:48:10;21.27;;;13.20;;
10479;SDS011;12789;42.610;23.040;2022-10-16T03:50:37;24.17;;;13.67;;
10479;SDS011;12789;42.610;23.040;2022-10-16T03:53:04;22.07;;;13.33;;
10479;SDS011;12789;42.610;23.040;2022-10-16T03:55:31;24.67;;;13.97;;
10479;SDS011;12789;42.610;23.040;2022-10-16T03:57:59;27.50;;;14.40;;
10479;SDS011;12789;42.610;23.040;2022-10-16T04:00:26;22.57;;;14.37;;
10479;SDS011;12789;42.610;23.040;2022-10-16T04:02:54;28.43;;;14.07;;
10479;SDS011;12789;42.610;23.040;2022-10-16T04:05:20;22.37;;;12.43;;
10479;SDS011;12789;42.610;23.040;2022-10-16T04:07:47;22.63;;;12.20;;
10479;SDS011;12789;42.610;23.040;2022-10-16T04:10:14;22.33;;;13.03;;
10479;SDS011;12789;42.610;23.040;2022-10-16T04:12:41;24.77;;;15.83;;
10479;SDS011;12789;42.610;23.040;2022-10-16T04:15:10;23.93;;;14.00;;
10479;SDS011;12789;42.610;23.040;2022-10-16T04:17:37;22.37;;;14.00;;
10479;SDS011;12789;42.610;23.040;2022-10-16T04:20:04;24.77;;;14.37;;
10479;SDS011;12789;42.610;23.040;2022-10-16T04:22:32;22.87;;;14.03;;
10479;SDS011;12789;42.610;23.040;2022-10-16T04:24:59;21.70;;;13.60;;
10479;SDS011;12789;42.610;23.040;2022-10-16T04:27:25;22.93;;;13.83;;
10479;SDS011;12789;42.610;23.040;2022-10-16T04:29:53;23.07;;;14.13;;
10479;SDS011;12789;42.610;23.040;2022-10-16T04:32:21;23.80;;;14.10;;
10479;SDS011;12789;42.610;23.040;2022-10-16T04:34:48;21.23;;;13.20;;
10479;SDS011;12789;42.610;23.040;2022-10-16T04:37:15;18.00;;;12.97;;
10479;SDS011;12789;42.610;23.040;2022-10-16T04:39:42;20.37;;;12.70;;
10479;SDS011;12789;42.610;23.040;2022-10-16T04:42:10;18.93;;;11.93;;
10479;SDS011;12789;42.610;23.040;2022-10-16T04:44:37;19.93;;;12.67;;
10479;SDS011;12789;42.610;23.040;2022-10-16T04:47:04;21.23;;;12.40;;
10479;SDS011;12789;42.610;23.040;2022-10-16T04:49:32;18.03;;;11.00;;
10479;SDS011;12789;42.610;23.040;2022-10-16T04:51:59;19.57;;;13.00;;
10479;SDS011;12789;42.610;23.040;2022-10-16T04:54:26;20.17;;;12.00;;
10479;SDS011;12789;42.610;23.040;2022-10-16T04:56:53;16.57;;;11.93;;
10479;SDS011;12789;42.610;23.040;2022-10-16T04:59:20;20.13;;;12.93;;
10479;SDS011;12789;42.610;23.040;2022-10-16T05:01:47;21.13;;;13.53;;
10479;SDS011;12789;42.610;23.040;2022-10-16T05:04:15;24.53;;;13.03;;
10479;SDS011;12789;42.610;23.040;2022-10-16T05:06:43;23.03;;;13.67;;
10479;SDS011;12789;42.610;23.040;2022-10-16T05:09:10;25.20;;;13.30;;
10479;SDS011;12789;42.610;23.040;2022-10-16T05:11:37;26.43;;;13.93;;
10479;SDS011;12789;42.610;23.040;2022-10-16T05:14:04;24.67;;;15.70;;
10479;SDS011;12789;42.610;23.040;2022-10-16T05:16:31;31.80;;;17.00;;
10479;SDS011;12789;42.610;23.040;2022-10-16T05:18:58;30.03;;;17.00;;
10479;SDS011;12789;42.610;23.040;2022-10-16T05:21:25;28.23;;;17.57;;
10479;SDS011;12789;42.610;23.040;2022-10-16T05:23:54;28.73;;;16.30;;
10479;SDS011;12789;42.610;23.040;2022-10-16T05:26:21;29.97;;;17.47;;
10479;SDS011;12789;42.610;23.040;2022-10-16T05:28:49;33.73;;;18.37;;
10479;SDS011;12789;42.610;23.040;2022-10-16T05:31:16;37.47;;;20.13;;
10479;SDS011;12789;42.610;23.040;2022-10-16T05:33:43;43.50;;;20.90;;
10479;SDS011;12789;42.610;23.040;2022-10-16T05:36:10;34.57;;;19.83;;
10479;SDS011;12789;42.610;23.040;2022-10-16T05:38:38;34.50;;;20.00;;
10479;SDS011;12789;42.610;23.040;2022-10-16T05:41:06;39.97;;;19.97;;
10479;SDS011;12789;42.610;23.040;2022-10-16T05:43:34;31.07;;;17.90;;
10479;SDS011;12789;42.610;23.040;2022-10-16T05:46:07;29.60;;;17.97;;
10479;SDS011;12789;42.610;23.040;2022-10-16T05:48:34;33.70;;;22.27;;
10479;SDS011;12789;42.610;23.040;2022-10-16T05:51:01;51.60;;;30.67;;
10479;SDS011;12789;42.610;23.040;2022-10-16T05:53:30;34.73;;;20.30;;
10479;SDS011;12789;42.610;23.040;2022-10-16T05:55:58;31.63;;;18.47;;
10479;SDS011;12789;42.610;23.040;2022-10-16T05:58:30;28.83;;;15.57;;
10479;SDS011;12789;42.610;23.040;2022-10-16T06:00:58;34.07;;;21.20;;
10479;SDS011;12789;42.610;23.040;2022-10-16T06:03:26;209.03;;;125.70;;
10479;SDS011;12789;42.610;23.040;2022-10-16T06:05:54;131.57;;;77.80;;
10479;SDS011;12789;42.610;23.040;2022-10-16T06:08:21;179.13;;;100.43;;
10479;SDS011;12789;42.610;23.040;2022-10-16T06:10:49;70.73;;;41.23;;
10479;SDS011;12789;42.610;23.040;2022-10-16T06:13:28;48.43;;;26.27;;
10479;SDS011;12789;42.610;23.040;2022-10-16T06:15:56;28.23;;;15.67;;
10479;SDS011;12789;42.610;23.040;2022-10-16T06:18:23;35.20;;;15.17;;
10479;SDS011;12789;42.610;23.040;2022-10-16T06:20:50;26.60;;;14.10;;
10479;SDS011;12789;42.610;23.040;2022-10-16T06:23:17;23.30;;;14.17;;
10479;SDS011;12789;42.610;23.040;2022-10-16T06:25:44;22.53;;;14.47;;
10479;SDS011;12789;42.610;23.040;2022-10-16T06:28:13;24.03;;;15.00;;
10479;SDS011;12789;42.610;23.040;2022-10-16T06:30:41;27.80;;;14.50;;
10479;SDS011;12789;42.610;23.040;2022-10-16T06:33:09;25.60;;;13.63;;
10479;SDS011;12789;42.610;23.040;2022-10-16T06:35:36;23.27;;;13.27;;
10479;SDS011;12789;42.610;23.040;2022-10-16T06:38:03;38.60;;;15.77;;
10479;SDS011;12789;42.610;23.040;2022-10-16T06:40:30;33.10;;;15.20;;
10479;SDS011;12789;42.610;23.040;2022-10-16T06:42:57;52.20;;;17.23;;
10479;SDS011;12789;42.610;23.040;2022-10-16T06:45:24;53.70;;;17.67;;
10479;SDS011;12789;42.610;23.040;2022-10-16T06:47:52;40.80;;;17.57;;
10479;SDS011;12789;42.610;23.040;2022-10-16T06:50:19;37.90;;;16.13;;
10479;SDS011;12789;42.610;23.040;2022-10-16T06:52:46;49.33;;;15.63;;
10479;SDS011;12789;42.610;23.040;2022-10-16T06:55:13;36.57;;;14.73;;
10479;SDS011;12789;42.610;23.040;2022-10-16T06:57:40;46.30;;;15.03;;
10479;SDS011;12789;42.610;23.040;2022-10-16T07:00:07;48.90;;;15.77;;
10479;SDS011;12789;42.610;23.040;2022-10-16T07:02:35;39.77;;;16.27;;
10479;SDS011;12789;42.610;23.040;2022-10-16T07:05:04;74.63;;;38.17;;
10479;SDS011;12789;42.610;23.040;2022-10-16T07:07:31;57.87;;;24.33;;
10479;SDS011;12789;42.610;23.040;2022-10-16T07:09:58;154.40;;;87.73;;
10479;SDS011;12789;42.610;23.040;2022-10-16T07:12:25;53.17;;;22.20;;
10479;SDS011;12789;42.610;23.040;2022-10-16T07:14:52;50.73;;;19.13;;
10479;SDS011;12789;42.610;23.040;2022-10-16T07:17:19;42.77;;;17.17;;
10479;SDS011;12789;42.610;23.040;2022-10-16T07:19:47;38.03;;;16.57;;
10479;SDS011;12789;42.610;23.040;2022-10-16T07:22:16;72.83;;;35.57;;
10479;SDS011;12789;42.610;23.040;2022-10-16T07:24:42;46.30;;;25.37;;
10479;SDS011;12789;42.610;23.040;2022-10-16T07:27:10;64.43;;;22.90;;
10479;SDS011;12789;42.610;23.040;2022-10-16T07:29:36;51.13;;;19.97;;
10479;SDS011;12789;42.610;23.040;2022-10-16T07:32:03;39.50;;;18.40;;
10479;SDS011;12789;42.610;23.040;2022-10-16T07:34:30;97.20;;;56.00;;
10479;SDS011;12789;42.610;23.040;2022-10-16T07:36:57;47.17;;;23.30;;
10479;SDS011;12789;42.610;23.040;2022-10-16T07:39:26;63.97;;;34.57;;
10479;SDS011;12789;42.610;23.040;2022-10-16T07:41:53;47.50;;;22.23;;
10479;SDS011;12789;42.610;23.040;2022-10-16T07:44:19;34.80;;;15.40;;
10479;SDS011;12789;42.610;23.040;2022-10-16T07:46:46;41.87;;;17.33;;
10479;SDS011;12789;42.610;23.040;2022-10-16T07:49:13;27.83;;;13.93;;
10479;SDS011;12789;42.610;23.040;2022-10-16T07:51:40;25.30;;;12.43;;
10479;SDS011;12789;42.610;23.040;2022-10-16T07:54:07;29.83;;;12.07;;
10479;SDS011;12789;42.610;23.040;2022-10-16T07:56:36;24.60;;;11.00;;
10479;SDS011;12789;42.610;23.040;2022-10-16T07:59:03;20.97;;;11.30;;
10479;SDS011;12789;42.610;23.040;2022-10-16T08:01:30;16.23;;;10.03;;
10479;SDS011;12789;42.610;23.040;2022-10-16T08:03:57;20.17;;;9.93;;
10479;SDS011;12789;42.610;23.040;2022-10-16T08:06:24;19.77;;;9.63;;
10479;SDS011;12789;42.610;23.040;2022-10-16T08:08:50;50.00;;;32.70;;
10479;SDS011;12789;42.610;23.040;2022-10-16T08:11:17;22.20;;;10.40;;
10479;SDS011;12789;42.610;23.040;2022-10-16T08:13:46;16.93;;;8.43;;
10479;SDS011;12789;42.610;23.040;2022-10-16T08:16:13;14.57;;;8.00;;
10479;SDS011;12789;42.610;23.040;2022-10-16T08:18:40;17.10;;;8.20;;
10479;SDS011;12789;42.610;23.040;2022-10-16T08:21:08;11.97;;;6.87;;
10479;SDS011;12789;42.610;23.040;2022-10-16T08:23:40;11.33;;;7.33;;
10479;SDS011;12789;42.610;23.040;2022-10-16T08:26:07;16.92;;;7.65;;
10479;SDS011;12789;42.610;23.040;2022-10-16T08:28:36;14.00;;;6.80;;
10479;SDS011;12789;42.610;23.040;2022-10-16T08:31:09;16.97;;;7.27;;
10479;SDS011;12789;42.610;23.040;2022-10-16T08:33:37;11.77;;;6.87;;
10479;SDS011;12789;42.610;23.040;2022-10-16T08:36:05;9.85;;;5.97;;
10479;SDS011;12789;42.610;23.040;2022-10-16T08:38:33;9.25;;;5.97;;
10479;SDS011;12789;42.610;23.040;2022-10-16T08:41:04;14.80;;;6.47;;
10479;SDS011;12789;42.610;23.040;2022-10-16T08:43:54;11.90;;;6.30;;
10479;SDS011;12789;42.610;23.040;2022-10-16T08:46:36;11.70;;;6.25;;
10479;SDS011;12789;42.610;23.040;2022-10-16T08:49:10;8.55;;;5.63;;
10479;SDS011;12789;42.610;23.040;2022-10-16T08:51:40;13.13;;;5.78;;
10479;SDS011;12789;42.610;23.040;2022-10-16T08:54:11;12.32;;;5.43;;
10479;SDS011;12789;42.610;23.040;2022-10-16T08:56:47;11.27;;;5.97;;
10479;SDS011;12789;42.610;23.040;2022-10-16T08:59:14;11.52;;;5.72;;
10479;SDS011;12789;42.610;23.040;2022-10-16T09:01:45;8.52;;;5.43;;
10479;SDS011;12789;42.610;23.040;2022-10-16T09:04:24;10.80;;;5.55;;
10479;SDS011;12789;42.610;23.040;2022-10-16T09:07:12;8.63;;;5.45;;
10479;SDS011;12789;42.610;23.040;2022-10-16T09:09:58;8.40;;;5.32;;
10479;SDS011;12789;42.610;23.040;2022-10-16T09:12:37;9.02;;;5.50;;
10479;SDS011;12789;42.610;23.040;2022-10-16T09:15:13;14.90;;;6.20;;
10479;SDS011;12789;42.610;23.040;2022-10-16T09:17:52;11.50;;;5.43;;
10479;SDS011;12789;42.610;23.040;2022-10-16T09:20:26;9.50;;;5.57;;
10479;SDS011;12789;42.610;23.040;2022-10-16T09:23:10;7.80;;;4.90;;
10479;SDS011;12789;42.610;23.040;2022-10-16T09:25:42;12.13;;;5.25;;
10479;SDS011;12789;42.610;23.040;2022-10-16T09:28:12;9.80;;;5.32;;
10479;SDS011;12789;42.610;23.040;2022-10-16T09:30:40;8.57;;;4.90;;
10479;SDS011;12789;42.610;23.040;2022-10-16T09:33:08;8.63;;;5.00;;
10479;SDS011;12789;42.610;23.040;2022-10-16T09:35:37;11.93;;;5.18;;
10479;SDS011;12789;42.610;23.040;2022-10-16T09:38:05;11.40;;;4.68;;
10479;SDS011;12789;42.610;23.040;2022-10-16T09:40:34;7.60;;;4.45;;
10479;SDS011;12789;42.610;23.040;2022-10-16T09:43:06;8.63;;;4.60;;
10479;SDS011;12789;42.610;23.040;2022-10-16T09:45:52;9.85;;;4.43;;
10479;SDS011;12789;42.610;23.040;2022-10-16T09:48:21;6.97;;;4.05;;
10479;SDS011;12789;42.610;23.040;2022-10-16T09:50:55;8.93;;;4.50;;
10479;SDS011;12789;42.610;23.040;2022-10-16T09:53:23;8.98;;;4.32;;
10479;SDS011;12789;42.610;23.040;2022-10-16T09:55:51;8.95;;;4.47;;
10479;SDS011;12789;42.610;23.040;2022-10-16T09:58:21;10.70;;;4.30;;
10479;SDS011;12789;42.610;23.040;2022-10-16T10:00:48;5.78;;;4.07;;
10479;SDS011;12789;42.610;23.040;2022-10-16T10:03:26;7.15;;;3.40;;
10479;SDS011;12789;42.610;23.040;2022-10-16T10:06:03;6.25;;;2.90;;
10479;SDS011;12789;42.610;23.040;2022-10-16T10:08:51;9.02;;;3.47;;
10479;SDS011;12789;42.610;23.040;2022-10-16T10:14:16;3.08;;;2.65;;
10479;SDS011;12789;42.610;23.040;2022-10-16T10:17:11;4.55;;;2.90;;
10479;SDS011;12789;42.610;23.040;2022-10-16T10:19:48;2.72;;;2.53;;
10479;SDS011;12789;42.610;23.040;2022-10-16T10:22:28;5.38;;;2.63;;
10479;SDS011;12789;42.610;23.040;2022-10-16T10:24:59;2.78;;;2.58;;
10479;SDS011;12789;42.610;23.040;2022-10-16T10:27:39;3.45;;;2.63;;
10479;SDS011;12789;42.610;23.040;2022-10-16T10:30:18;3.17;;;2.50;;
10479;SDS011;12789;42.610;23.040;2022-10-16T10:32:52;2.50;;;2.30;;
10479;SDS011;12789;42.610;23.040;2022-10-16T10:35:30;2.50;;;2.30;;
10479;SDS011;12789;42.610;23.040;2022-10-16T10:38:06;2.10;;;2.00;;
10479;SDS011;12789;42.610;23.040;2022-10-16T10:40:45;2.97;;;2.08;;
10479;SDS011;12789;42.610;23.040;2022-10-16T10:43:21;3.20;;;2.40;;
10479;SDS011;12789;42.610;23.040;2022-10-16T10:45:58;3.85;;;2.22;;
10479;SDS011;12789;42.610;23.040;2022-10-16T10:48:42;3.67;;;2.20;;
10479;SDS011;12789;42.610;23.040;2022-10-16T10:51:21;2.20;;;2.00;;
10479;SDS011;12789;42.610;23.040;2022-10-16T10:53:55;2.28;;;2.03;;
10479;SDS011;12789;42.610;23.040;2022-10-16T10:56:40;3.78;;;2.25;;
10479;SDS011;12789;42.610;23.040;2022-10-16T11:02:26;4.13;;;2.08;;
10479;SDS011;12789;42.610;23.040;2022-10-16T11:05:05;3.28;;;2.22;;
10479;SDS011;12789;42.610;23.040;2022-10-16T11:08:10;2.55;;;1.95;;
10479;SDS011;12789;42.610;23.040;2022-10-16T11:10:45;2.40;;;2.17;;
10479;SDS011;12789;42.610;23.040;2022-10-16T11:13:23;2.55;;;1.92;;
10479;SDS011;12789;42.610;23.040;2022-10-16T11:15:57;2.72;;;2.10;;
10479;SDS011;12789;42.610;23.040;2022-10-16T11:18:28;2.45;;;2.25;;
10479;SDS011;12789;42.610;23.040;2022-10-16T11:21:02;3.97;;;2.22;;
10479;SDS011;12789;42.610;23.040;2022-10-16T11:23:35;3.85;;;2.05;;
10479;SDS011;12789;42.610;23.040;2022-10-16T11:26:10;3.17;;;1.75;;
10479;SDS011;12789;42.610;23.040;2022-10-16T11:28:43;2.33;;;2.10;;
10479;SDS011;12789;42.610;23.040;2022-10-16T11:31:14;2.72;;;2.42;;
10479;SDS011;12789;42.610;23.040;2022-10-16T11:33:46;4.55;;;2.22;;
10479;SDS011;12789;42.610;23.040;2022-10-16T11:36:19;2.35;;;1.92;;
10479;SDS011;12789;42.610;23.040;2022-10-16T11:38:55;3.10;;;2.00;;
10479;SDS011;12789;42.610;23.040;2022-10-16T11:41:27;1.95;;;1.85;;
10479;SDS011;12789;42.610;23.040;2022-10-16T11:47:05;2.00;;;1.90;;
10479;SDS011;12789;42.610;23.040;2022-10-16T11:49:41;2.90;;;2.10;;
10479;SDS011;12789;42.610;23.040;2022-10-16T11:52:13;3.60;;;2.42;;
10479;SDS011;12789;42.610;23.040;2022-10-16T11:54:49;2.10;;;2.00;;
10479;SDS011;12789;42.610;23.040;2022-10-16T11:57:22;5.47;;;2.10;;
10479;SDS011;12789;42.610;23.040;2022-10-16T11:59:52;4.68;;;1.77;;
10479;SDS011;12789;42.610;23.040;2022-10-16T12:02:32;4.05;;;1.88;;
10479;SDS011;12789;42.610;23.040;2022-10-16T12:05:07;1.88;;;1.77;;
10479;SDS011;12789;42.610;23.040;2022-10-16T12:07:47;2.50;;;2.08;;
10479;SDS011;12789;42.610;23.040;2022-10-16T12:10:22;4.55;;;2.00;;
10479;SDS011;12789;42.610;23.040;2022-10-16T12:12:51;4.53;;;2.00;;
10479;SDS011;12789;42.610;23.040;2022-10-16T12:15:20;4.05;;;2.03;;
10479;SDS011;12789;42.610;23.040;2022-10-16T12:17:49;2.15;;;1.88;;
10479;SDS011;12789;42.610;23.040;2022-10-16T12:20:22;2.90;;;1.83;;
10479;SDS011;12789;42.610;23.040;2022-10-16T12:22:53;2.15;;;1.95;;
10479;SDS011;12789;42.610;23.040;2022-10-16T12:25:24;1.95;;;1.85;;
10479;SDS011;12789;42.610;23.040;2022-10-16T12:28:00;1.70;;;1.60;;
10479;SDS011;12789;42.610;23.040;2022-10-16T12:30:30;6.93;;;1.80;;
10479;SDS011;12789;42.610;23.040;2022-10-16T12:33:00;2.45;;;1.70;;
10479;SDS011;12789;42.610;23.040;2022-10-16T12:35:30;2.13;;;1.83;;
10479;SDS011;12789;42.610;23.040;2022-10-16T12:38:13;1.88;;;1.65;;
10479;SDS011;12789;42.610;23.040;2022-10-16T12:40:44;1.63;;;1.52;;
10479;SDS011;12789;42.610;23.040;2022-10-16T12:43:27;3.20;;;1.70;;
10479;SDS011;12789;42.610;23.040;2022-10-16T12:46:03;3.90;;;1.88;;
10479;SDS011;12789;42.610;23.040;2022-10-16T12:48:32;5.18;;;1.98;;
10479;SDS011;12789;42.610;23.040;2022-10-16T12:51:09;1.92;;;1.65;;
10479;SDS011;12789;42.610;23.040;2022-10-16T12:53:37;3.38;;;2.05;;
10479;SDS011;12789;42.610;23.040;2022-10-16T12:56:09;2.72;;;1.67;;
10479;SDS011;12789;42.610;23.040;2022-10-16T12:58:48;1.70;;;1.60;;
10479;SDS011;12789;42.610;23.040;2022-10-16T13:01:25;2.08;;;1.65;;
10479;SDS011;12789;42.610;23.040;2022-10-16T13:04:20;2.45;;;1.83;;
10479;SDS011;12789;42.610;23.040;2022-10-16T13:06:58;5.32;;;2.00;;
10479;SDS011;12789;42.610;23.040;2022-10-16T13:09:40;2.83;;;1.90;;
10479;SDS011;12789;42.610;23.040;2022-10-16T13:12:21;2.30;;;2.10;;
10479;SDS011;12789;42.610;23.040;2022-10-16T13:15:18;2.53;;;2.33;;
10479;SDS011;12789;42.610;23.040;2022-10-16T13:18:03;4.72;;;2.55;;
10479;SDS011;12789;42.610;23.040;2022-10-16T13:20:39;1.88;;;1.70;;
10479;SDS011;12789;42.610;23.040;2022-10-16T13:23:27;4.18;;;2.03;;
10479;SDS011;12789;42.610;23.040;2022-10-16T13:26:03;3.97;;;2.22;;
10479;SDS011;12789;42.610;23.040;2022-10-16T13:28:43;2.45;;;1.95;;
10479;SDS011;12789;42.610;23.040;2022-10-16T13:31:13;6.50;;;2.17;;
10479;SDS011;12789;42.610;23.040;2022-10-16T13:33:46;4.88;;;2.55;;
10479;SDS011;12789;42.610;23.040;2022-10-16T13:36:18;3.90;;;2.30;;
10479;SDS011;12789;42.610;23.040;2022-10-16T13:38:47;6.38;;;2.50;;
10479;SDS011;12789;42.610;23.040;2022-10-16T13:41:15;3.30;;;2.67;;
10479;SDS011;12789;42.610;23.040;2022-10-16T13:43:45;4.20;;;2.67;;
10479;SDS011;12789;42.610;23.040;2022-10-16T13:46:15;3.13;;;2.25;;
10479;SDS011;12789;42.610;23.040;2022-10-16T13:48:43;5.70;;;2.15;;
10479;SDS011;12789;42.610;23.040;2022-10-16T13:51:22;2.78;;;1.90;;
10479;SDS011;12789;42.610;23.040;2022-10-16T13:53:49;5.63;;;1.80;;
10479;SDS011;12789;42.610;23.040;2022-10-16T13:56:18;2.15;;;1.95;;
10479;SDS011;12789;42.610;23.040;2022-10-16T13:58:57;2.80;;;2.00;;
10479;SDS011;12789;42.610;23.040;2022-10-16T14:01:25;3.55;;;2.30;;
10479;SDS011;12789;42.610;23.040;2022-10-16T14:04:00;3.60;;;3.30;;
10479;SDS011;12789;42.610;23.040;2022-10-16T14:06:29;3.60;;;3.30;;
10479;SDS011;12789;42.610;23.040;2022-10-16T14:08:58;4.78;;;2.75;;
10479;SDS011;12789;42.610;23.040;2022-10-16T14:11:28;4.50;;;2.80;;
10479;SDS011;12789;42.610;23.040;2022-10-16T14:13:57;6.45;;;2.90;;
10479;SDS011;12789;42.610;23.040;2022-10-16T14:16:25;5.43;;;2.72;;
10479;SDS011;12789;42.610;23.040;2022-10-16T14:18:56;3.28;;;2.42;;
10479;SDS011;12789;42.610;23.040;2022-10-16T14:21:25;6.43;;;2.97;;
10479;SDS011;12789;42.610;23.040;2022-10-16T14:23:52;4.20;;;3.30;;
10479;SDS011;12789;42.610;23.040;2022-10-16T14:26:21;3.42;;;2.88;;
10479;SDS011;12789;42.610;23.040;2022-10-16T14:29:01;4.35;;;3.22;;
10479;SDS011;12789;42.610;23.040;2022-10-16T14:31:36;4.03;;;3.10;;
10479;SDS011;12789;42.610;23.040;2022-10-16T14:34:05;6.30;;;4.20;;
10479;SDS011;12789;42.610;23.040;2022-10-16T14:36:52;4.30;;;3.85;;
10479;SDS011;12789;42.610;23.040;2022-10-16T14:39:20;11.63;;;3.80;;
10479;SDS011;12789;42.610;23.040;2022-10-16T14:41:50;6.50;;;4.03;;
10479;SDS011;12789;42.610;23.040;2022-10-16T14:44:20;9.38;;;4.18;;
10479;SDS011;12789;42.610;23.040;2022-10-16T14:46:54;6.95;;;4.57;;
10479;SDS011;12789;42.610;23.040;2022-10-16T14:49:21;5.28;;;4.75;;